Time;durP1;ratioP1;P1;durP2;ratioP2;P2;SDS_P1;SDS_P2;PMS_P1;PMS_P2;Temp;Humidity;BMP_temperature;BMP_pressure;BME280_temperature;BME280_humidity;BME280_pressure;Samples;Min_cycle;Max_cycle;Signal;HPM_P1;HPM_P2
2024/02/11 00:00:47;;;;;;;17.60;10.33;;;;;;;;;;5115100;28;20464;-82
2024/02/11 00:03:15;;;;;;;19.00;11.40;;;;;;;;;;5114346;28;20865;-81
2024/02/11 00:05:41;;;;;;;18.40;11.80;;;;;;;;;;5115161;28;20424;-81
2024/02/11 00:08:08;;;;;;;22.60;11.30;;;;;;;;;;5114749;28;20784;-82
2024/02/11 00:10:35;;;;;;;19.33;11.83;;;;;;;;;;5114979;28;20481;-81
2024/02/11 00:13:01;;;;;;;20.17;12.53;;;;;;;;;;5114911;28;20471;-80
2024/02/11 00:15:27;;;;;;;18.10;11.07;;;;;;;;;;5114831;28;20423;-81
2024/02/11 00:17:54;;;;;;;19.80;12.10;;;;;;;;;;5114763;28;20410;-80
2024/02/11 00:20:20;;;;;;;22.60;10.87;;;;;;;;;;5114739;28;20473;-80
2024/02/11 00:22:48;;;;;;;18.07;10.87;;;;;;;;;;5096175;28;20560;-80
2024/02/11 00:25:14;;;;;;;17.93;10.00;;;;;;;;;;5114722;28;20972;-80
2024/02/11 00:27:49;;;;;;;18.50;12.53;;;;;;;;;;5115730;28;20412;-82
2024/02/11 00:30:16;;;;;;;19.00;12.10;;;;;;;;;;5114720;28;20423;-80
2024/02/11 00:32:42;;;;;;;21.67;10.70;;;;;;;;;;5114536;28;20523;-79
2024/02/11 00:35:08;;;;;;;18.77;12.13;;;;;;;;;;5114604;28;20444;-81
2024/02/11 00:37:34;;;;;;;17.50;10.90;;;;;;;;;;5114524;28;20439;-80
2024/02/11 00:40:04;;;;;;;19.63;10.20;;;;;;;;;;5114078;28;20419;-82
2024/02/11 00:42:31;;;;;;;17.90;10.77;;;;;;;;;;5096198;28;20412;-81
2024/02/11 00:44:58;;;;;;;18.67;10.77;;;;;;;;;;5114358;28;20424;-82
2024/02/11 00:47:24;;;;;;;20.63;10.90;;;;;;;;;;5114116;28;20456;-79
2024/02/11 00:49:50;;;;;;;20.27;12.00;;;;;;;;;;5114260;28;20962;-84
2024/02/11 00:52:16;;;;;;;18.73;11.60;;;;;;;;;;5114102;28;20184;-81
2024/02/11 00:54:42;;;;;;;19.50;11.60;;;;;;;;;;5113704;28;20554;-83
2024/02/11 00:57:08;;;;;;;17.80;8.40;;;;;;;;;;5114211;28;20180;-86
2024/02/11 00:59:34;;;;;;;17.87;10.03;;;;;;;;;;5114081;28;20484;-80
2024/02/11 01:02:00;;;;;;;18.33;11.17;;;;;;;;;;5095800;28;20416;-81
2024/02/11 01:04:26;;;;;;;18.43;10.90;;;;;;;;;;5114052;28;20412;-80
2024/02/11 01:06:57;;;;;;;22.50;12.40;;;;;;;;;;5095699;28;20780;-83
2024/02/11 01:09:23;;;;;;;17.87;10.97;;;;;;;;;;5113651;28;20427;-82
2024/02/11 01:11:50;;;;;;;17.53;11.80;;;;;;;;;;5113882;28;20403;-82
2024/02/11 01:14:18;;;;;;;17.87;10.57;;;;;;;;;;5113687;28;20466;-81
2024/02/11 01:16:44;;;;;;;17.50;11.40;;;;;;;;;;5113877;28;20418;-81
2024/02/11 01:19:11;;;;;;;18.80;11.60;;;;;;;;;;5113805;28;20412;-80
2024/02/11 01:21:37;;;;;;;18.70;10.60;;;;;;;;;;5113768;28;20452;-82
2024/02/11 01:24:03;;;;;;;21.40;11.23;;;;;;;;;;5095211;28;20594;-83
2024/02/11 01:26:29;;;;;;;17.13;11.00;;;;;;;;;;5113791;28;20409;-81
2024/02/11 01:28:55;;;;;;;19.07;10.80;;;;;;;;;;5113648;28;20777;-81
2024/02/11 01:31:22;;;;;;;21.00;12.20;;;;;;;;;;5095384;28;20228;-81
2024/02/11 01:33:49;;;;;;;22.67;11.70;;;;;;;;;;5113743;28;20461;-81
2024/02/11 01:36:15;;;;;;;17.30;10.83;;;;;;;;;;5113578;28;20404;-82
2024/02/11 01:38:44;;;;;;;19.17;11.07;;;;;;;;;;5113462;28;20428;-79
2024/02/11 01:41:10;;;;;;;21.10;11.27;;;;;;;;;;5095125;28;20898;-81
2024/02/11 01:43:36;;;;;;;14.70;9.60;;;;;;;;;;5113390;28;20423;-80
2024/02/11 01:46:02;;;;;;;17.90;10.57;;;;;;;;;;5113284;28;20403;-81
2024/02/11 01:48:30;;;;;;;18.57;10.57;;;;;;;;;;5113391;28;20257;-83
2024/02/11 01:50:57;;;;;;;16.67;9.70;;;;;;;;;;5113458;28;20406;-82
2024/02/11 01:53:24;;;;;;;17.10;11.23;;;;;;;;;;5112901;28;21032;-82
2024/02/11 01:55:50;;;;;;;21.10;12.13;;;;;;;;;;5095103;28;20408;-80
2024/02/11 01:58:16;;;;;;;20.23;13.07;;;;;;;;;;5113287;28;20534;-84
2024/02/11 02:00:43;;;;;;;20.10;12.43;;;;;;;;;;5113352;28;20439;-81
2024/02/11 02:03:09;;;;;;;16.97;11.43;;;;;;;;;;5095091;28;20871;-82
2024/02/11 02:05:37;;;;;;;24.47;12.27;;;;;;;;;;5113317;28;20808;-79
2024/02/11 02:08:04;;;;;;;19.47;11.00;;;;;;;;;;5112881;28;20539;-81
2024/02/11 02:10:31;;;;;;;16.80;10.10;;;;;;;;;;5113194;28;20404;-80
2024/02/11 02:12:57;;;;;;;20.73;10.40;;;;;;;;;;5113080;28;20458;-80
2024/02/11 02:15:24;;;;;;;18.17;10.43;;;;;;;;;;5113247;28;20503;-83
2024/02/11 02:17:50;;;;;;;20.70;11.23;;;;;;;;;;5113208;28;20402;-86
2024/02/11 02:20:16;;;;;;;19.50;11.13;;;;;;;;;;5113127;28;20406;-78
2024/02/11 02:22:42;;;;;;;19.40;11.43;;;;;;;;;;5112718;28;21103;-80
2024/02/11 02:25:17;;;;;;;19.80;11.33;;;;;;;;;;5113113;28;20440;-80
2024/02/11 02:27:46;;;;;;;18.13;10.20;;;;;;;;;;5115775;28;20415;-79
2024/02/11 02:30:13;;;;;;;18.13;12.70;;;;;;;;;;5116917;28;20498;-81
2024/02/11 02:32:38;;;;;;;19.70;10.93;;;;;;;;;;5116798;28;20415;-83
2024/02/11 02:35:05;;;;;;;23.83;12.50;;;;;;;;;;5098654;28;20570;-81
2024/02/11 02:37:33;;;;;;;19.73;10.53;;;;;;;;;;5116359;28;20418;-79
2024/02/11 02:39:59;;;;;;;19.80;9.70;;;;;;;;;;5098531;28;20424;-79
2024/02/11 02:42:25;;;;;;;16.87;10.20;;;;;;;;;;5116840;28;20413;-82
2024/02/11 02:44:51;;;;;;;18.50;11.50;;;;;;;;;;5098494;28;20420;-78
2024/02/11 02:47:18;;;;;;;20.83;11.53;;;;;;;;;;5116398;28;20232;-79
2024/02/11 02:49:45;;;;;;;15.83;9.70;;;;;;;;;;5116545;28;20910;-81
2024/02/11 02:52:11;;;;;;;17.00;11.33;;;;;;;;;;5116613;28;20407;-79
2024/02/11 02:54:37;;;;;;;23.17;12.03;;;;;;;;;;5116115;28;20802;-79
2024/02/11 02:57:03;;;;;;;19.60;10.00;;;;;;;;;;5116468;28;20399;-81
2024/02/11 02:59:29;;;;;;;18.30;11.20;;;;;;;;;;5116432;28;20985;-79
2024/02/11 03:02:01;;;;;;;20.37;12.27;;;;;;;;;;5116309;28;20430;-79
2024/02/11 03:04:28;;;;;;;16.77;10.33;;;;;;;;;;5116426;28;20499;-80
2024/02/11 03:06:55;;;;;;;23.50;10.87;;;;;;;;;;5116369;28;20749;-84
2024/02/11 03:09:21;;;;;;;15.93;10.47;;;;;;;;;;5115951;28;20395;-81
2024/02/11 03:11:49;;;;;;;18.43;10.70;;;;;;;;;;5116041;28;20416;-82
2024/02/11 03:14:15;;;;;;;17.80;9.37;;;;;;;;;;5116111;28;20467;-80
2024/02/11 03:16:43;;;;;;;18.57;10.50;;;;;;;;;;5116145;28;20792;-80
2024/02/11 03:19:09;;;;;;;19.17;10.33;;;;;;;;;;5115942;28;20437;-80
2024/02/11 03:21:38;;;;;;;17.67;9.73;;;;;;;;;;5115899;28;20396;-80
2024/02/11 03:24:07;;;;;;;16.70;10.00;;;;;;;;;;5115452;28;20496;-81
2024/02/11 03:26:33;;;;;;;16.63;9.87;;;;;;;;;;5115908;28;20402;-80
2024/02/11 03:29:00;;;;;;;22.70;11.33;;;;;;;;;;5115945;28;20820;-82
2024/02/11 03:31:27;;;;;;;14.87;10.00;;;;;;;;;;5115860;28;20552;-81
2024/02/11 03:33:53;;;;;;;16.50;9.93;;;;;;;;;;5115653;28;20870;-80
2024/02/11 03:36:19;;;;;;;16.93;9.07;;;;;;;;;;5115691;28;20441;-78
2024/02/11 03:38:45;;;;;;;19.53;10.00;;;;;;;;;;5114036;28;20507;-80
2024/02/11 03:41:12;;;;;;;18.87;9.40;;;;;;;;;;5115699;28;20490;-81
2024/02/11 03:43:38;;;;;;;16.23;10.00;;;;;;;;;;5115600;28;20419;-84
2024/02/11 03:46:06;;;;;;;17.60;10.43;;;;;;;;;;5115333;28;20498;-80
2024/02/11 03:48:32;;;;;;;16.63;10.07;;;;;;;;;;5115534;28;20407;-79
2024/02/11 03:51:00;;;;;;;18.53;9.90;;;;;;;;;;5115355;28;20419;-80
2024/02/11 03:53:26;;;;;;;16.20;9.70;;;;;;;;;;5114942;28;20251;-81
2024/02/11 03:55:52;;;;;;;20.60;11.60;;;;;;;;;;5115229;28;20407;-80
2024/02/11 03:58:18;;;;;;;16.40;10.83;;;;;;;;;;5115274;28;20417;-81
2024/02/11 04:00:44;;;;;;;19.70;10.10;;;;;;;;;;5115267;28;20415;-81
2024/02/11 04:03:12;;;;;;;19.60;11.17;;;;;;;;;;5115136;28;20412;-81
2024/02/11 04:05:39;;;;;;;16.47;6.70;;;;;;;;;;5115132;28;20423;-80
2024/02/11 04:08:08;;;;;;;16.70;10.00;;;;;;;;;;5114847;28;20407;-81
2024/02/11 04:10:36;;;;;;;18.27;10.43;;;;;;;;;;5114958;28;20406;-82
2024/02/11 04:13:02;;;;;;;16.87;10.37;;;;;;;;;;5096691;28;20463;-80
2024/02/11 04:15:30;;;;;;;19.13;10.70;;;;;;;;;;5114851;28;20489;-80
2024/02/11 04:18:07;;;;;;;16.20;9.63;;;;;;;;;;5115017;28;20439;-82
2024/02/11 04:20:33;;;;;;;18.93;10.73;;;;;;;;;;5114840;28;20411;-81
2024/02/11 04:22:59;;;;;;;18.50;10.30;;;;;;;;;;5114485;28;20413;-80
2024/02/11 04:25:30;;;;;;;20.17;11.17;;;;;;;;;;5114656;28;20421;-80
2024/02/11 04:27:56;;;;;;;21.80;11.40;;;;;;;;;;5114686;28;20466;-80
2024/02/11 04:30:22;;;;;;;21.83;11.93;;;;;;;;;;5114695;28;20415;-80
2024/02/11 04:32:48;;;;;;;19.17;11.60;;;;;;;;;;5114584;28;20447;-82
2024/02/11 04:35:15;;;;;;;18.57;11.43;;;;;;;;;;5114635;28;20517;-81
2024/02/11 04:37:47;;;;;;;14.73;9.60;;;;;;;;;;5114091;28;20824;-81
2024/02/11 04:40:13;;;;;;;19.37;10.80;;;;;;;;;;5114513;28;20434;-81
2024/02/11 04:42:41;;;;;;;17.90;11.37;;;;;;;;;;5114436;28;20900;-81
2024/02/11 04:45:07;;;;;;;19.03;10.63;;;;;;;;;;5114389;28;20435;-80
2024/02/11 04:47:35;;;;;;;21.00;10.43;;;;;;;;;;5114164;28;20873;-81
2024/02/11 04:50:03;;;;;;;19.00;10.00;;;;;;;;;;5113943;28;20813;-80
2024/02/11 04:52:29;;;;;;;16.50;9.97;;;;;;;;;;5113841;28;20415;-80
2024/02/11 04:54:56;;;;;;;20.00;11.70;;;;;;;;;;5114221;28;20429;-81
2024/02/11 04:57:22;;;;;;;18.20;11.10;;;;;;;;;;5114082;28;20407;-81
2024/02/11 04:59:49;;;;;;;19.60;11.53;;;;;;;;;;5114172;28;20431;-80
2024/02/11 05:02:16;;;;;;;16.17;9.70;;;;;;;;;;5114138;28;20409;-80
2024/02/11 05:04:43;;;;;;;18.10;11.87;;;;;;;;;;5114019;28;20407;-79
2024/02/11 05:07:09;;;;;;;21.80;10.97;;;;;;;;;;5113728;28;20445;-80
2024/02/11 05:09:38;;;;;;;17.73;11.10;;;;;;;;;;5114741;28;20888;-83
2024/02/11 05:12:08;;;;;;;20.77;13.30;;;;;;;;;;5095838;28;20433;-84
2024/02/11 05:14:34;;;;;;;20.20;11.93;;;;;;;;;;5113899;28;20467;-79
2024/02/11 05:17:02;;;;;;;20.87;12.43;;;;;;;;;;5113922;28;20406;-80
2024/02/11 05:19:29;;;;;;;19.43;11.47;;;;;;;;;;5113992;28;20454;-79
2024/02/11 05:21:56;;;;;;;23.97;13.00;;;;;;;;;;5113423;28;20788;-81
2024/02/11 05:24:22;;;;;;;22.83;12.00;;;;;;;;;;5113670;28;20415;-79
2024/02/11 05:26:48;;;;;;;25.83;12.27;;;;;;;;;;5113609;28;20835;-79
2024/02/11 05:29:14;;;;;;;24.50;13.20;;;;;;;;;;5113633;28;20901;-80
2024/02/11 05:31:41;;;;;;;22.37;12.60;;;;;;;;;;5113620;28;20419;-79
2024/02/11 05:34:07;;;;;;;21.50;12.20;;;;;;;;;;5113531;28;20505;-83
2024/02/11 05:36:35;;;;;;;22.40;13.50;;;;;;;;;;5113600;28;20399;-80
2024/02/11 05:39:00;;;;;;;22.70;11.87;;;;;;;;;;5113181;28;20970;-79
2024/02/11 05:41:26;;;;;;;16.43;10.10;;;;;;;;;;5113503;28;20406;-80
2024/02/11 05:43:52;;;;;;;18.10;11.40;;;;;;;;;;5113439;28;20559;-79
2024/02/11 05:46:18;;;;;;;23.07;13.13;;;;;;;;;;5113257;28;20850;-80
2024/02/11 05:48:44;;;;;;;21.30;12.40;;;;;;;;;;5113464;28;20407;-80
2024/02/11 05:51:13;;;;;;;20.40;11.47;;;;;;;;;;5113461;28;20391;-80
2024/02/11 05:53:39;;;;;;;21.33;10.60;;;;;;;;;;5094664;28;20478;-79
2024/02/11 05:56:06;;;;;;;21.83;13.10;;;;;;;;;;5113435;28;20534;-80
2024/02/11 05:58:32;;;;;;;22.80;11.73;;;;;;;;;;5113367;28;20464;-80
2024/02/11 06:00:58;;;;;;;23.57;12.20;;;;;;;;;;5113287;28;20415;-79
2024/02/11 06:03:24;;;;;;;23.03;13.20;;;;;;;;;;5117305;28;20403;-79
2024/02/11 06:05:50;;;;;;;21.40;12.00;;;;;;;;;;5117477;28;20405;-81
2024/02/11 06:08:16;;;;;;;25.37;14.40;;;;;;;;;;5117015;28;20774;-79
2024/02/11 06:10:43;;;;;;;21.70;13.00;;;;;;;;;;5117380;28;20408;-79
2024/02/11 06:13:12;;;;;;;25.07;12.87;;;;;;;;;;5117187;28;20565;-79
2024/02/11 06:15:40;;;;;;;16.13;10.73;;;;;;;;;;5117309;28;20410;-80
2024/02/11 06:18:06;;;;;;;25.87;13.37;;;;;;;;;;5117260;28;20414;-79
2024/02/11 06:20:32;;;;;;;22.13;11.60;;;;;;;;;;5098839;28;20420;-80
2024/02/11 06:22:59;;;;;;;23.77;12.67;;;;;;;;;;5116842;28;20874;-79
2024/02/11 06:25:25;;;;;;;24.33;13.00;;;;;;;;;;5117158;28;20494;-86
2024/02/11 06:27:52;;;;;;;22.67;13.50;;;;;;;;;;5117197;28;20818;-81
2024/02/11 06:30:18;;;;;;;24.90;13.97;;;;;;;;;;5116943;28;20415;-79
2024/02/11 06:32:45;;;;;;;24.47;13.10;;;;;;;;;;5116919;28;20407;-80
2024/02/11 06:35:12;;;;;;;24.10;13.23;;;;;;;;;;5116853;28;20783;-80
2024/02/11 06:37:38;;;;;;;24.87;15.20;;;;;;;;;;5094618;28;20420;-80
2024/02/11 06:40:10;;;;;;;22.83;14.10;;;;;;;;;;5096496;28;20923;-80
2024/02/11 06:42:36;;;;;;;24.73;13.63;;;;;;;;;;5096357;28;20627;-79
2024/02/11 06:45:06;;;;;;;21.20;13.23;;;;;;;;;;5095090;28;20443;-80
2024/02/11 06:47:34;;;;;;;21.97;13.20;;;;;;;;;;5096135;28;20455;-82
2024/02/11 06:50:00;;;;;;;20.03;11.60;;;;;;;;;;5095070;28;20505;-86
2024/02/11 06:52:27;;;;;;;21.63;12.10;;;;;;;;;;5095893;28;20438;-86
2024/02/11 06:54:53;;;;;;;25.50;14.30;;;;;;;;;;5094863;28;20992;-80
2024/02/11 06:57:20;;;;;;;24.60;14.00;;;;;;;;;;5096109;28;20399;-80
2024/02/11 06:59:47;;;;;;;22.47;12.90;;;;;;;;;;5096206;28;20920;-81
2024/02/11 07:02:14;;;;;;;21.80;13.03;;;;;;;;;;5096315;28;20833;-80
2024/02/11 07:04:40;;;;;;;19.13;12.30;;;;;;;;;;5096105;28;20970;-80
2024/02/11 07:07:08;;;;;;;21.87;13.27;;;;;;;;;;5095817;28;20409;-81
2024/02/11 07:09:34;;;;;;;23.10;11.87;;;;;;;;;;5096275;28;20757;-84
2024/02/11 07:12:00;;;;;;;19.43;11.47;;;;;;;;;;5096368;28;20520;-84
2024/02/11 07:14:26;;;;;;;18.70;11.97;;;;;;;;;;5096279;28;20842;-86
2024/02/11 07:16:58;;;;;;;21.33;12.73;;;;;;;;;;5096590;28;20419;-85
2024/02/11 07:19:24;;;;;;;23.20;13.80;;;;;;;;;;5096409;28;20406;-84
2024/02/11 07:21:52;;;;;;;23.47;13.80;;;;;;;;;;5096198;28;20420;-86
2024/02/11 07:24:18;;;;;;;21.77;13.63;;;;;;;;;;5096452;28;20774;-87
2024/02/11 07:26:44;;;;;;;23.87;13.97;;;;;;;;;;5096548;28;20839;-86
2024/02/11 07:29:10;;;;;;;21.27;13.10;;;;;;;;;;5096836;28;20398;-85
2024/02/11 07:31:37;;;;;;;22.67;12.43;;;;;;;;;;5096848;28;20410;-85
2024/02/11 07:34:03;;;;;;;21.00;12.67;;;;;;;;;;5096551;28;20476;-84
2024/02/11 07:36:30;;;;;;;24.20;14.00;;;;;;;;;;5095923;28;20475;-80
2024/02/11 07:38:56;;;;;;;19.90;11.80;;;;;;;;;;5097254;28;20413;-86
2024/02/11 07:41:23;;;;;;;23.47;12.67;;;;;;;;;;5096852;28;20408;-87
2024/02/11 07:43:49;;;;;;;22.00;13.17;;;;;;;;;;5095131;28;20410;-85
2024/02/11 07:46:16;;;;;;;19.77;13.47;;;;;;;;;;5095962;28;20953;-86
2024/02/11 07:48:42;;;;;;;20.77;11.93;;;;;;;;;;5096247;28;20418;-84
2024/02/11 07:51:08;;;;;;;21.00;12.83;;;;;;;;;;5096402;28;20434;-85
2024/02/11 07:53:34;;;;;;;25.30;13.10;;;;;;;;;;5096614;28;20505;-78
2024/02/11 07:56:01;;;;;;;22.73;13.97;;;;;;;;;;5096794;28;20413;-82
2024/02/11 07:58:27;;;;;;;23.00;13.83;;;;;;;;;;5096721;28;20410;-80
2024/02/11 08:00:53;;;;;;;22.20;13.27;;;;;;;;;;5097151;28;20421;-81
2024/02/11 08:03:21;;;;;;;24.20;14.23;;;;;;;;;;5095427;28;20957;-82
2024/02/11 08:05:47;;;;;;;24.10;14.33;;;;;;;;;;5094791;28;20965;-81
2024/02/11 08:08:13;;;;;;;23.97;15.30;;;;;;;;;;5094477;28;20409;-80
2024/02/11 08:10:39;;;;;;;21.83;13.87;;;;;;;;;;5094624;28;20900;-80
2024/02/11 08:13:08;;;;;;;21.93;13.17;;;;;;;;;;5094547;28;20459;-82
2024/02/11 08:15:35;;;;;;;24.40;13.90;;;;;;;;;;5094554;28;20414;-83
2024/02/11 08:18:04;;;;;;;26.37;14.07;;;;;;;;;;5094572;28;20411;-79
2024/02/11 08:20:30;;;;;;;24.57;12.30;;;;;;;;;;5094533;28;20888;-85
2024/02/11 08:22:56;;;;;;;23.77;14.43;;;;;;;;;;5092808;28;20410;-79
2024/02/11 08:25:22;;;;;;;28.30;15.80;;;;;;;;;;5093575;28;20412;-81
2024/02/11 08:27:48;;;;;;;22.80;13.70;;;;;;;;;;5094220;28;20220;-80
2024/02/11 08:30:14;;;;;;;22.27;13.57;;;;;;;;;;5093039;28;20416;-79
2024/02/11 08:32:42;;;;;;;28.33;14.03;;;;;;;;;;5094228;28;20667;-79
2024/02/11 08:35:08;;;;;;;22.80;13.53;;;;;;;;;;5094406;28;20420;-84
2024/02/11 08:37:36;;;;;;;24.93;13.73;;;;;;;;;;5094153;28;20929;-84
2024/02/11 08:40:03;;;;;;;19.60;13.10;;;;;;;;;;5094147;28;20409;-80
2024/02/11 08:42:29;;;;;;;25.00;13.53;;;;;;;;;;5094142;28;20499;-82
2024/02/11 08:44:55;;;;;;;19.60;12.20;;;;;;;;;;5094198;28;20461;-81
2024/02/11 08:47:22;;;;;;;26.60;16.00;;;;;;;;;;5093918;28;20464;-83
2024/02/11 08:49:48;;;;;;;27.50;14.40;;;;;;;;;;5094071;28;20474;-80
2024/02/11 08:52:15;;;;;;;25.27;14.50;;;;;;;;;;5093483;28;20476;-79
2024/02/11 08:54:41;;;;;;;26.10;14.10;;;;;;;;;;5092520;28;20481;-80
2024/02/11 08:57:10;;;;;;;21.67;12.00;;;;;;;;;;5093778;28;20507;-82
2024/02/11 08:59:41;;;;;;;22.87;13.93;;;;;;;;;;5092367;28;20308;-81
2024/02/11 09:02:10;;;;;;;27.07;13.80;;;;;;;;;;5093599;28;20417;-83
2024/02/11 09:04:36;;;;;;;24.53;13.40;;;;;;;;;;5093588;28;20417;-79
2024/02/11 09:07:02;;;;;;;24.10;13.97;;;;;;;;;;5093143;28;20420;-81
2024/02/11 09:09:29;;;;;;;26.53;15.93;;;;;;;;;;5093498;28;20800;-79
2024/02/11 09:11:56;;;;;;;22.80;13.07;;;;;;;;;;5092346;28;20417;-80
2024/02/11 09:14:24;;;;;;;23.87;14.77;;;;;;;;;;5093424;28;20525;-80
2024/02/11 09:16:50;;;;;;;25.73;15.80;;;;;;;;;;5093538;28;20417;-80
2024/02/11 09:19:16;;;;;;;23.47;13.27;;;;;;;;;;5092153;28;20417;-79
2024/02/11 09:21:45;;;;;;;25.97;15.53;;;;;;;;;;5091772;28;20689;-80
2024/02/11 09:24:11;;;;;;;30.90;14.50;;;;;;;;;;5093405;28;20417;-80
2024/02/11 09:26:37;;;;;;;22.40;13.30;;;;;;;;;;5093404;28;20420;-79
2024/02/11 09:29:04;;;;;;;23.53;15.13;;;;;;;;;;5092024;28;20518;-80
2024/02/11 09:31:31;;;;;;;27.60;16.13;;;;;;;;;;5091896;28;20512;-81
2024/02/11 09:33:57;;;;;;;24.00;13.60;;;;;;;;;;5093175;28;20811;-80
2024/02/11 09:36:23;;;;;;;26.10;15.37;;;;;;;;;;5092941;28;20397;-80
2024/02/11 09:38:49;;;;;;;27.40;15.20;;;;;;;;;;5093139;28;20406;-80
2024/02/11 09:41:15;;;;;;;21.17;15.00;;;;;;;;;;5091892;28;20946;-84
2024/02/11 09:43:41;;;;;;;29.07;17.00;;;;;;;;;;5093105;28;20507;-82
2024/02/11 09:46:07;;;;;;;27.40;16.37;;;;;;;;;;5091623;28;20467;-81
2024/02/11 09:48:35;;;;;;;26.33;16.10;;;;;;;;;;5094840;28;20414;-82
2024/02/11 09:51:02;;;;;;;28.53;16.17;;;;;;;;;;5093187;28;20477;-79
2024/02/11 09:53:33;;;;;;;24.93;15.00;;;;;;;;;;5092578;28;21005;-79
2024/02/11 09:55:59;;;;;;;27.37;16.07;;;;;;;;;;5092006;28;20416;-81
2024/02/11 09:58:25;;;;;;;27.87;14.80;;;;;;;;;;5092956;28;20429;-82
2024/02/11 10:00:51;;;;;;;22.77;15.00;;;;;;;;;;5093081;28;20667;-84
2024/02/11 10:03:20;;;;;;;32.43;16.57;;;;;;;;;;5092960;28;20419;-81
2024/02/11 10:05:48;;;;;;;21.83;13.47;;;;;;;;;;5093093;28;20394;-80
2024/02/11 10:08:15;;;;;;;24.87;15.40;;;;;;;;;;5092579;28;20900;-80
2024/02/11 10:10:42;;;;;;;26.97;16.53;;;;;;;;;;5092962;28;20419;-79
2024/02/11 10:13:08;;;;;;;24.10;14.80;;;;;;;;;;5092918;28;20547;-80
2024/02/11 10:15:35;;;;;;;28.37;16.23;;;;;;;;;;5092946;28;20473;-80
2024/02/11 10:18:08;;;;;;;27.10;14.97;;;;;;;;;;5092990;28;20912;-80
2024/02/11 10:20:37;;;;;;;33.17;16.40;;;;;;;;;;5092851;28;20517;-80
2024/02/11 10:23:05;;;;;;;26.70;15.73;;;;;;;;;;5092499;28;20404;-80
2024/02/11 10:25:31;;;;;;;26.53;15.97;;;;;;;;;;5092763;28;20418;-80
2024/02/11 10:27:59;;;;;;;24.53;14.87;;;;;;;;;;5092801;28;20496;-79
2024/02/11 10:30:25;;;;;;;29.60;16.10;;;;;;;;;;5092787;28;20409;-80
2024/02/11 10:32:54;;;;;;;26.50;15.33;;;;;;;;;;5092650;28;20408;-79
2024/02/11 10:35:20;;;;;;;29.00;16.63;;;;;;;;;;5092745;28;20420;-78
2024/02/11 10:37:47;;;;;;;26.57;15.43;;;;;;;;;;5092283;28;20410;-82
2024/02/11 10:40:13;;;;;;;26.40;16.60;;;;;;;;;;5091516;28;20820;-81
2024/02/11 10:42:40;;;;;;;26.03;16.43;;;;;;;;;;5092674;28;20453;-81
2024/02/11 10:45:07;;;;;;;22.00;14.23;;;;;;;;;;5092548;28;20509;-79
2024/02/11 10:47:33;;;;;;;28.10;17.20;;;;;;;;;;5093137;28;20469;-80
2024/02/11 10:49:59;;;;;;;24.20;14.00;;;;;;;;;;5096314;28;20416;-79
2024/02/11 10:52:27;;;;;;;27.60;17.20;;;;;;;;;;5095955;28;20843;-79
2024/02/11 10:54:55;;;;;;;23.90;14.57;;;;;;;;;;5096128;28;20469;-79
2024/02/11 10:57:22;;;;;;;26.13;16.00;;;;;;;;;;5096253;28;20960;-82
2024/02/11 10:59:57;;;;;;;25.27;14.90;;;;;;;;;;5094900;28;20423;-80
2024/02/11 11:02:25;;;;;;;23.60;14.93;;;;;;;;;;5096070;28;20498;-81
2024/02/11 11:04:51;;;;;;;26.07;13.20;;;;;;;;;;5095941;28;20927;-80
2024/02/11 11:07:19;;;;;;;24.43;15.80;;;;;;;;;;5095576;28;20404;-81
2024/02/11 11:09:45;;;;;;;24.67;14.97;;;;;;;;;;5096139;28;20409;-80
2024/02/11 11:12:15;;;;;;;28.73;14.40;;;;;;;;;;5095862;28;20411;-80
2024/02/11 11:14:49;;;;;;;25.13;15.00;;;;;;;;;;5095711;28;20531;-80
2024/02/11 11:17:17;;;;;;;24.50;14.60;;;;;;;;;;5095755;28;20392;-79
2024/02/11 11:19:48;;;;;;;25.90;15.87;;;;;;;;;;5095745;28;20402;-80
2024/02/11 11:22:14;;;;;;;26.57;16.20;;;;;;;;;;5095329;28;21093;-79
2024/02/11 11:24:40;;;;;;;23.43;15.80;;;;;;;;;;5095609;28;20407;-80
2024/02/11 11:27:10;;;;;;;28.50;14.77;;;;;;;;;;5095510;28;20462;-81
2024/02/11 11:29:36;;;;;;;29.73;15.57;;;;;;;;;;5095545;28;20893;-81
2024/02/11 11:32:09;;;;;;;26.80;16.00;;;;;;;;;;5095605;28;20440;-79
2024/02/11 11:34:34;;;;;;;26.03;13.80;;;;;;;;;;5097216;28;20473;-80
2024/02/11 11:37:15;;;;;;;25.37;16.80;;;;;;;;;;5095021;28;20860;-82
2024/02/11 11:39:43;;;;;;;24.43;14.90;;;;;;;;;;5095343;28;20420;-81
2024/02/11 11:42:09;;;;;;;24.33;14.97;;;;;;;;;;5095352;28;20916;-79
2024/02/11 11:44:35;;;;;;;25.70;14.73;;;;;;;;;;5095136;28;20412;-82
2024/02/11 11:47:01;;;;;;;27.90;15.80;;;;;;;;;;5094861;28;20508;-81
2024/02/11 11:49:27;;;;;;;26.90;14.87;;;;;;;;;;5093683;28;20440;-80
2024/02/11 11:51:57;;;;;;;26.30;15.60;;;;;;;;;;5094623;28;20759;-80
2024/02/11 11:54:23;;;;;;;27.90;14.77;;;;;;;;;;5094810;28;20814;-83
2024/02/11 11:56:55;;;;;;;26.73;14.50;;;;;;;;;;5094870;28;20416;-80
2024/02/11 11:59:20;;;;;;;26.10;15.90;;;;;;;;;;5093870;28;20411;-81
2024/02/11 12:01:46;;;;;;;26.80;15.37;;;;;;;;;;5094907;28;20445;-84
2024/02/11 12:04:14;;;;;;;23.20;15.70;;;;;;;;;;5094877;28;20179;-81
2024/02/11 12:06:40;;;;;;;25.03;15.40;;;;;;;;;;5094450;28;20449;-81
2024/02/11 12:09:07;;;;;;;23.87;14.70;;;;;;;;;;5094665;28;20413;-82
2024/02/11 12:11:34;;;;;;;24.37;15.57;;;;;;;;;;5094707;28;20417;-81
2024/02/11 12:14:00;;;;;;;29.40;16.90;;;;;;;;;;5094602;28;20469;-80
2024/02/11 12:16:26;;;;;;;31.17;17.03;;;;;;;;;;5094568;28;20401;-80
2024/02/11 12:18:52;;;;;;;26.20;17.60;;;;;;;;;;5094788;28;20416;-83
2024/02/11 12:21:20;;;;;;;27.23;17.27;;;;;;;;;;5094597;28;20412;-80
2024/02/11 12:23:46;;;;;;;37.03;21.63;;;;;;;;;;5094462;28;20397;-79
2024/02/11 12:26:12;;;;;;;40.17;20.67;;;;;;;;;;5094538;28;20439;-81
2024/02/11 12:28:40;;;;;;;26.80;16.10;;;;;;;;;;5094369;28;20905;-82
2024/02/11 12:31:06;;;;;;;29.33;16.07;;;;;;;;;;5094410;28;20769;-80
2024/02/11 12:33:37;;;;;;;25.27;16.30;;;;;;;;;;5094246;28;20469;-81
2024/02/11 12:36:10;;;;;;;24.60;14.73;;;;;;;;;;5093967;28;20914;-80
2024/02/11 12:38:37;;;;;;;24.77;14.43;;;;;;;;;;5094236;28;20409;-81
2024/02/11 12:41:03;;;;;;;30.87;15.27;;;;;;;;;;5094169;28;20406;-80
2024/02/11 12:43:31;;;;;;;25.50;15.43;;;;;;;;;;5094104;28;20978;-82
2024/02/11 12:45:57;;;;;;;27.70;17.73;;;;;;;;;;5093828;28;20401;-80
2024/02/11 12:48:23;;;;;;;26.67;17.60;;;;;;;;;;5094062;28;20408;-80
2024/02/11 12:50:49;;;;;;;30.73;18.43;;;;;;;;;;5092277;28;20842;-80
2024/02/11 12:53:17;;;;;;;26.97;15.80;;;;;;;;;;5093884;28;20237;-81
2024/02/11 12:55:43;;;;;;;24.63;14.10;;;;;;;;;;5093915;28;20821;-81
2024/02/11 12:58:09;;;;;;;29.27;16.80;;;;;;;;;;5093629;28;20414;-80
2024/02/11 13:00:35;;;;;;;26.73;15.03;;;;;;;;;;5093561;28;20414;-82
2024/02/11 13:03:01;;;;;;;26.20;15.60;;;;;;;;;;5093706;28;20410;-79
2024/02/11 13:05:28;;;;;;;29.63;15.43;;;;;;;;;;5092327;28;20812;-81
2024/02/11 13:07:54;;;;;;;21.77;13.67;;;;;;;;;;5093358;28;20882;-80
2024/02/11 13:10:20;;;;;;;27.03;15.53;;;;;;;;;;5093383;28;20445;-80
2024/02/11 13:12:46;;;;;;;26.97;16.20;;;;;;;;;;5092125;28;20798;-80
2024/02/11 13:15:12;;;;;;;21.43;13.80;;;;;;;;;;5092198;28;20433;-81
2024/02/11 13:17:44;;;;;;;26.57;14.90;;;;;;;;;;5093458;28;20411;-80
2024/02/11 13:20:11;;;;;;;37.87;15.33;;;;;;;;;;5093456;28;20428;-80
2024/02/11 13:22:37;;;;;;;27.07;14.63;;;;;;;;;;5092982;28;20409;-80
2024/02/11 13:25:06;;;;;;;25.63;13.27;;;;;;;;;;5093320;28;20991;-80
2024/02/11 13:27:32;;;;;;;25.13;13.20;;;;;;;;;;5093428;28;20416;-78
2024/02/11 13:29:59;;;;;;;25.33;14.10;;;;;;;;;;5093238;28;20471;-80
2024/02/11 13:32:24;;;;;;;25.10;15.13;;;;;;;;;;5093271;28;20431;-81
2024/02/11 13:34:53;;;;;;;23.00;13.70;;;;;;;;;;5093202;28;20476;-78
2024/02/11 13:37:19;;;;;;;22.10;13.10;;;;;;;;;;5092871;28;20461;-80
2024/02/11 13:39:46;;;;;;;25.17;13.70;;;;;;;;;;5093219;28;20416;-80
2024/02/11 13:42:12;;;;;;;24.87;14.00;;;;;;;;;;5091865;28;20939;-80
2024/02/11 13:44:38;;;;;;;27.03;13.10;;;;;;;;;;5091790;28;20428;-81
2024/02/11 13:47:06;;;;;;;24.97;13.63;;;;;;;;;;5092873;28;20465;-80
2024/02/11 13:49:32;;;;;;;25.17;15.17;;;;;;;;;;5093022;28;20791;-80
2024/02/11 13:51:58;;;;;;;26.10;13.30;;;;;;;;;;5091302;28;20412;-80
2024/02/11 13:54:24;;;;;;;21.67;12.97;;;;;;;;;;5093046;28;20482;-80
2024/02/11 13:56:50;;;;;;;23.77;14.40;;;;;;;;;;5093052;28;20417;-79
2024/02/11 13:59:16;;;;;;;21.87;12.30;;;;;;;;;;5093106;28;20425;-80
2024/02/11 14:01:42;;;;;;;22.70;11.00;;;;;;;;;;5092963;28;20743;-80
2024/02/11 14:04:08;;;;;;;22.67;12.30;;;;;;;;;;5092866;28;20413;-80
2024/02/11 14:06:34;;;;;;;24.60;13.83;;;;;;;;;;5092462;28;20845;-80
2024/02/11 14:09:00;;;;;;;21.63;12.80;;;;;;;;;;5093052;28;20448;-80
2024/02/11 14:11:26;;;;;;;22.17;13.73;;;;;;;;;;5091606;28;20432;-80
2024/02/11 14:13:52;;;;;;;28.33;14.80;;;;;;;;;;5092666;28;20559;-81
2024/02/11 14:16:18;;;;;;;25.30;13.70;;;;;;;;;;5093045;28;20417;-80